1995 BOBBY (1995049S11133)


On this page: IBTrACS data - Map and Plots - Positions - Intensities - Original source data

Summary

Start Feb 18
End Feb 27
Basin SI
LMI 110 kt
Sources jtwc_sh
bom
neumann
In WMO? Yes
Related storms 1995050S11134
Previous storm 1995 HEIDA (SI)
Previous in basin 1995 HEIDA (SI)
Concurrent storms 1995 BOBBY (SI)
1995 BOBBY (SI)
1995 INGRID (SI)
Next in basin 1995 BOBBY (SI)
Next storm 1995 BOBBY (SI)

top of page IBTrACS Data: File Access

top of page HURSAT Data: File Access

Image of storm

top of page Plots:

Map of storm track will not appear if FTP is down
Time series of cyclone Maximum Sustained Wind will not appear if FTP is down
Time series of cyclone Minimum Central Pressure will not appear if FTP is down

top of page Track Data:Position

jtwc_sh bom neumann
Date Lat Lon Lat Lon Lat Lon
1995-02-18 00:00:00 -11.0 133.0 -11.0 133.0
1995-02-18 06:00:00 -11.2 132.1 -11.2 132.1
1995-02-18 12:00:00 -11.4 131.2 -11.4 131.2
1995-02-18 18:00:00 -11.7 130.2 -11.7 130.2
1995-02-19 00:00:00 -12.0 129.2 -12.0 129.2
1995-02-19 06:00:00 -12.2 128.2 -12.2 128.2
1995-02-19 12:00:00 -12.3 127.2 -12.3 127.2
1995-02-19 18:00:00 -12.5 126.2 -12.5 126.2
1995-02-20 00:00:00 -12.4 125.3 -12.4 125.3
1995-02-20 06:00:00 -12.5 124.4 -12.5 124.4
1995-02-20 12:00:00 -12.7 123.5 -12.7 123.5
1995-02-20 18:00:00 -13.2 122.6 -13.2 122.6
1995-02-21 00:00:00 -13.6 121.7 -13.6 121.7
1995-02-21 06:00:00 -14.1 120.9 -14.1 120.9
1995-02-21 12:00:00 -14.7 120.2 -14.7 120.2
1995-02-21 18:00:00 -15.4 119.7 -15.4 119.7
1995-02-22 00:00:00 -16.3 119.3 -16.6 119.5 -16.3 119.3
1995-02-22 06:00:00 -16.9 118.6 -17.1 118.7 -16.9 118.6
1995-02-22 12:00:00 -17.5 117.9 -17.5 117.9 -17.5 117.9
1995-02-22 18:00:00 -18.0 117.3 -18.1 117.2 -18.0 117.3
1995-02-23 00:00:00 -18.5 116.6 -18.4 116.5 -18.5 116.6
1995-02-23 06:00:00 -19.0 116.1 -19.0 116.1 -19.0 116.1
1995-02-23 12:00:00 -19.4 115.8 -19.4 115.8 -19.4 115.8
1995-02-23 18:00:00 -19.8 115.7 -19.7 115.7 -19.8 115.7
1995-02-24 00:00:00 -20.3 115.7 -20.2 115.8 -20.3 115.7
jtwc_sh bom neumann
1995-02-24 06:00:00 -20.8 115.7 -21.0 115.7 -20.8 115.7
1995-02-24 12:00:00 -21.3 115.5 -21.4 115.4 -21.3 115.5
1995-02-24 18:00:00 -21.7 115.3 -21.7 115.2 -21.7 115.3
1995-02-25 00:00:00 -22.1 115.2 -22.0 115.2 -22.1 115.2
1995-02-25 06:00:00 -22.7 115.2 -22.8 115.2 -22.7 115.2
1995-02-25 12:00:00 -23.5 115.2 -23.6 115.3 -23.5 115.2
1995-02-25 18:00:00 -24.4 115.4 -24.4 115.5 -24.4 115.4
1995-02-26 00:00:00 -25.3 115.8 -25.5 115.8 -25.3 115.8
1995-02-26 06:00:00 -26.3 116.4 -26.5 116.2 -26.3 116.4
1995-02-26 12:00:00 -27.2 117.5 -27.3 117.2 -27.2 117.5
1995-02-26 18:00:00 -28.0 119.0 -28.1 118.7 -28.0 119.0
1995-02-27 00:00:00 -28.9 120.8 -28.8 120.3 -28.9 120.8
1995-02-27 06:00:00 -29.7 122.8 -29.2 121.0 -29.7 122.8
1995-02-27 12:00:00 -30.4 124.9 -30.4 124.9

top of pageTrack Data:Intensity

jtwc_sh bom neumann
Date Wind Pres Wind Pres Wind Pres
1995-02-18 00:00:00 15. 15.
1995-02-18 06:00:00 15. 15.
1995-02-18 12:00:00 15. 15.
1995-02-18 18:00:00 20. 20.
1995-02-19 00:00:00 20. 20.
1995-02-19 06:00:00 20. 20.
1995-02-19 12:00:00 20. 20.
1995-02-19 18:00:00 25. 25.
1995-02-20 00:00:00 25. 25.
1995-02-20 06:00:00 25. 25.
1995-02-20 12:00:00 25. 25.
1995-02-20 18:00:00 25. 25.
1995-02-21 00:00:00 25. 25.
1995-02-21 06:00:00 30. 30.
1995-02-21 12:00:00 35. 35.
1995-02-21 18:00:00 40. 40.
1995-02-22 00:00:00 45. 47. 985. 45.
1995-02-22 06:00:00 50. 54. 980. 50.
1995-02-22 12:00:00 55. 60. 975. 55.
1995-02-22 18:00:00 60. 70. 965. 60.
1995-02-23 00:00:00 65. 80. 955. 65.
1995-02-23 06:00:00 70. 80. 955. 70.
1995-02-23 12:00:00 75. 80. 955. 75.
1995-02-23 18:00:00 80. 80. 955. 80.
1995-02-24 00:00:00 90. 84. 950. 90.
jtwc_sh bom neumann
1995-02-24 06:00:00 100. 101. 930. 100.
1995-02-24 12:00:00 110. 101. 930. 110.
1995-02-24 18:00:00 100. 89. 945. 95.
1995-02-25 00:00:00 90. 80. 955. 75.
1995-02-25 06:00:00 80. 66. 970. 55.
1995-02-25 12:00:00 70. 66. 970. 40.
1995-02-25 18:00:00 60. 60. 975. 35.
1995-02-26 00:00:00 55. 54. 980. 35.
1995-02-26 06:00:00 50. 47. 985. 35.
1995-02-26 12:00:00 45. 47. 985. 35.
1995-02-26 18:00:00 35. 47. 985. 30.
1995-02-27 00:00:00 20. 39. 992. 30.
1995-02-27 06:00:00 20. 33. 996. 25.
1995-02-27 12:00:00 20. 25.

top of page Links to source data

Source Source file Format
jtwc_sh bsh121995.txt ATCF
bom IDCKMSTM0S.csv:Line=19380:BOBBY CSV file (from Excel file)
neumann tracks.sh:Storm=1025:BOBBY:BSH121995:JTWC&BM832 HURDAT